sensor_id;sensor_type;location;lat;lon;timestamp;P1;durP1;ratioP1;P2;durP2;ratioP2
70106;SDS011;57473;37.508;15.080;2022-07-23T00:02:00;11.45;;;5.38;;
70106;SDS011;57473;37.508;15.080;2022-07-23T00:04:27;7.25;;;5.43;;
70106;SDS011;57473;37.508;15.080;2022-07-23T00:06:54;7.13;;;4.93;;
70106;SDS011;57473;37.508;15.080;2022-07-23T00:09:22;6.70;;;4.70;;
70106;SDS011;57473;37.508;15.080;2022-07-23T00:11:49;6.65;;;5.10;;
70106;SDS011;57473;37.508;15.080;2022-07-23T00:14:19;11.50;;;6.95;;
70106;SDS011;57473;37.508;15.080;2022-07-23T00:16:46;14.23;;;6.70;;
70106;SDS011;57473;37.508;15.080;2022-07-23T00:19:13;7.57;;;5.95;;
70106;SDS011;57473;37.508;15.080;2022-07-23T00:21:40;11.15;;;6.45;;
70106;SDS011;57473;37.508;15.080;2022-07-23T00:24:08;10.05;;;6.28;;
70106;SDS011;57473;37.508;15.080;2022-07-23T00:26:35;9.40;;;6.25;;
70106;SDS011;57473;37.508;15.080;2022-07-23T00:29:02;9.43;;;6.75;;
70106;SDS011;57473;37.508;15.080;2022-07-23T00:31:30;12.40;;;6.93;;
70106;SDS011;57473;37.508;15.080;2022-07-23T00:33:58;8.82;;;6.20;;
70106;SDS011;57473;37.508;15.080;2022-07-23T00:36:28;8.18;;;5.95;;
70106;SDS011;57473;37.508;15.080;2022-07-23T00:38:55;7.53;;;5.97;;
70106;SDS011;57473;37.508;15.080;2022-07-23T00:41:23;9.00;;;5.80;;
70106;SDS011;57473;37.508;15.080;2022-07-23T00:43:50;10.02;;;5.68;;
70106;SDS011;57473;37.508;15.080;2022-07-23T00:46:21;8.95;;;5.80;;
70106;SDS011;57473;37.508;15.080;2022-07-23T00:48:49;8.02;;;5.53;;
70106;SDS011;57473;37.508;15.080;2022-07-23T00:51:17;8.45;;;5.75;;
70106;SDS011;57473;37.508;15.080;2022-07-23T00:53:45;9.25;;;6.07;;
70106;SDS011;57473;37.508;15.080;2022-07-23T00:56:12;7.90;;;5.80;;
70106;SDS011;57473;37.508;15.080;2022-07-23T00:58:40;11.68;;;5.90;;
70106;SDS011;57473;37.508;15.080;2022-07-23T01:01:10;7.50;;;5.40;;
70106;SDS011;57473;37.508;15.080;2022-07-23T01:03:38;8.20;;;5.70;;
70106;SDS011;57473;37.508;15.080;2022-07-23T01:06:06;6.28;;;4.78;;
70106;SDS011;57473;37.508;15.080;2022-07-23T01:08:33;6.28;;;5.30;;
70106;SDS011;57473;37.508;15.080;2022-07-23T01:11:00;6.90;;;5.18;;
70106;SDS011;57473;37.508;15.080;2022-07-23T01:13:28;7.43;;;4.72;;
70106;SDS011;57473;37.508;15.080;2022-07-23T01:15:55;5.68;;;4.80;;
70106;SDS011;57473;37.508;15.080;2022-07-23T01:18:23;5.45;;;4.78;;
70106;SDS011;57473;37.508;15.080;2022-07-23T01:20:50;7.53;;;5.30;;
70106;SDS011;57473;37.508;15.080;2022-07-23T01:23:20;9.65;;;5.40;;
70106;SDS011;57473;37.508;15.080;2022-07-23T01:25:53;5.85;;;5.25;;
70106;SDS011;57473;37.508;15.080;2022-07-23T01:28:25;6.05;;;5.30;;
70106;SDS011;57473;37.508;15.080;2022-07-23T01:30:55;6.75;;;5.30;;
70106;SDS011;57473;37.508;15.080;2022-07-23T01:33:22;8.30;;;5.80;;
70106;SDS011;57473;37.508;15.080;2022-07-23T01:35:49;7.45;;;5.13;;
70106;SDS011;57473;37.508;15.080;2022-07-23T01:38:21;6.32;;;5.15;;
70106;SDS011;57473;37.508;15.080;2022-07-23T01:40:49;7.10;;;5.15;;
70106;SDS011;57473;37.508;15.080;2022-07-23T01:43:25;8.15;;;5.25;;
70106;SDS011;57473;37.508;15.080;2022-07-23T01:45:53;8.63;;;5.53;;
70106;SDS011;57473;37.508;15.080;2022-07-23T01:48:22;6.43;;;5.18;;
70106;SDS011;57473;37.508;15.080;2022-07-23T01:51:08;6.85;;;5.47;;
70106;SDS011;57473;37.508;15.080;2022-07-23T01:53:43;6.63;;;5.18;;
70106;SDS011;57473;37.508;15.080;2022-07-23T01:56:10;7.38;;;5.85;;
70106;SDS011;57473;37.508;15.080;2022-07-23T01:58:41;8.75;;;5.57;;
70106;SDS011;57473;37.508;15.080;2022-07-23T02:01:08;6.22;;;5.00;;
70106;SDS011;57473;37.508;15.080;2022-07-23T02:03:36;7.93;;;5.10;;
70106;SDS011;57473;37.508;15.080;2022-07-23T02:06:04;8.60;;;5.70;;
70106;SDS011;57473;37.508;15.080;2022-07-23T02:08:32;6.93;;;5.10;;
70106;SDS011;57473;37.508;15.080;2022-07-23T02:11:00;6.40;;;5.10;;
70106;SDS011;57473;37.508;15.080;2022-07-23T02:13:28;7.15;;;5.55;;
70106;SDS011;57473;37.508;15.080;2022-07-23T02:18:28;8.38;;;5.70;;
70106;SDS011;57473;37.508;15.080;2022-07-23T02:20:55;7.00;;;5.65;;
70106;SDS011;57473;37.508;15.080;2022-07-23T02:23:22;6.97;;;4.97;;
70106;SDS011;57473;37.508;15.080;2022-07-23T02:25:52;6.53;;;5.65;;
70106;SDS011;57473;37.508;15.080;2022-07-23T02:28:20;7.93;;;5.43;;
70106;SDS011;57473;37.508;15.080;2022-07-23T02:30:47;6.00;;;5.32;;
70106;SDS011;57473;37.508;15.080;2022-07-23T02:33:14;7.80;;;5.28;;
70106;SDS011;57473;37.508;15.080;2022-07-23T02:35:42;7.13;;;4.68;;
70106;SDS011;57473;37.508;15.080;2022-07-23T02:38:10;6.88;;;5.20;;
70106;SDS011;57473;37.508;15.080;2022-07-23T02:40:37;8.43;;;5.63;;
70106;SDS011;57473;37.508;15.080;2022-07-23T02:43:06;7.90;;;6.07;;
70106;SDS011;57473;37.508;15.080;2022-07-23T02:45:33;6.57;;;5.50;;
70106;SDS011;57473;37.508;15.080;2022-07-23T02:48:00;6.63;;;5.05;;
70106;SDS011;57473;37.508;15.080;2022-07-23T02:50:30;7.50;;;5.20;;
70106;SDS011;57473;37.508;15.080;2022-07-23T02:52:58;6.75;;;5.50;;
70106;SDS011;57473;37.508;15.080;2022-07-23T02:55:28;7.60;;;5.40;;
70106;SDS011;57473;37.508;15.080;2022-07-23T02:57:59;5.53;;;4.93;;
70106;SDS011;57473;37.508;15.080;2022-07-23T03:00:27;6.97;;;5.32;;
70106;SDS011;57473;37.508;15.080;2022-07-23T03:02:54;7.05;;;5.38;;
70106;SDS011;57473;37.508;15.080;2022-07-23T03:05:22;6.80;;;5.00;;
70106;SDS011;57473;37.508;15.080;2022-07-23T03:07:49;7.13;;;5.35;;
70106;SDS011;57473;37.508;15.080;2022-07-23T03:10:16;8.05;;;5.15;;
70106;SDS011;57473;37.508;15.080;2022-07-23T03:12:44;6.95;;;5.40;;
70106;SDS011;57473;37.508;15.080;2022-07-23T03:15:11;9.65;;;6.53;;
70106;SDS011;57473;37.508;15.080;2022-07-23T03:17:40;8.23;;;5.93;;
70106;SDS011;57473;37.508;15.080;2022-07-23T03:20:07;8.23;;;6.28;;
70106;SDS011;57473;37.508;15.080;2022-07-23T03:22:37;9.20;;;5.88;;
70106;SDS011;57473;37.508;15.080;2022-07-23T03:25:05;8.75;;;5.93;;
70106;SDS011;57473;37.508;15.080;2022-07-23T03:27:34;8.75;;;6.00;;
70106;SDS011;57473;37.508;15.080;2022-07-23T03:30:01;9.55;;;6.30;;
70106;SDS011;57473;37.508;15.080;2022-07-23T03:32:29;11.82;;;6.40;;
70106;SDS011;57473;37.508;15.080;2022-07-23T03:34:57;9.40;;;5.70;;
70106;SDS011;57473;37.508;15.080;2022-07-23T03:37:26;9.38;;;5.97;;
70106;SDS011;57473;37.508;15.080;2022-07-23T03:39:56;7.95;;;5.95;;
70106;SDS011;57473;37.508;15.080;2022-07-23T03:42:23;10.65;;;6.40;;
70106;SDS011;57473;37.508;15.080;2022-07-23T03:44:51;10.75;;;6.28;;
70106;SDS011;57473;37.508;15.080;2022-07-23T03:47:18;9.63;;;6.30;;
70106;SDS011;57473;37.508;15.080;2022-07-23T03:49:48;7.85;;;6.22;;
70106;SDS011;57473;37.508;15.080;2022-07-23T03:52:16;10.90;;;6.50;;
70106;SDS011;57473;37.508;15.080;2022-07-23T03:54:43;9.18;;;6.00;;
70106;SDS011;57473;37.508;15.080;2022-07-23T03:57:11;8.05;;;5.68;;
70106;SDS011;57473;37.508;15.080;2022-07-23T03:59:38;9.98;;;6.15;;
70106;SDS011;57473;37.508;15.080;2022-07-23T04:02:05;7.55;;;5.65;;
70106;SDS011;57473;37.508;15.080;2022-07-23T04:04:32;9.45;;;6.40;;
70106;SDS011;57473;37.508;15.080;2022-07-23T04:07:00;7.50;;;5.85;;
70106;SDS011;57473;37.508;15.080;2022-07-23T04:09:29;7.97;;;6.00;;
70106;SDS011;57473;37.508;15.080;2022-07-23T04:11:56;17.05;;;9.43;;
70106;SDS011;57473;37.508;15.080;2022-07-23T04:14:24;17.85;;;9.60;;
70106;SDS011;57473;37.508;15.080;2022-07-23T04:16:51;19.25;;;8.40;;
70106;SDS011;57473;37.508;15.080;2022-07-23T04:19:19;10.15;;;7.93;;
70106;SDS011;57473;37.508;15.080;2022-07-23T04:21:55;10.07;;;6.78;;
70106;SDS011;57473;37.508;15.080;2022-07-23T04:24:23;13.00;;;6.88;;
70106;SDS011;57473;37.508;15.080;2022-07-23T04:26:51;10.95;;;7.78;;
70106;SDS011;57473;37.508;15.080;2022-07-23T04:29:19;12.60;;;6.82;;
70106;SDS011;57473;37.508;15.080;2022-07-23T04:31:48;8.85;;;6.20;;
70106;SDS011;57473;37.508;15.080;2022-07-23T04:34:16;9.77;;;7.82;;
70106;SDS011;57473;37.508;15.080;2022-07-23T04:36:44;8.73;;;7.00;;
70106;SDS011;57473;37.508;15.080;2022-07-23T04:39:13;9.18;;;6.53;;
70106;SDS011;57473;37.508;15.080;2022-07-23T04:41:41;8.52;;;6.63;;
70106;SDS011;57473;37.508;15.080;2022-07-23T04:44:08;7.78;;;6.13;;
70106;SDS011;57473;37.508;15.080;2022-07-23T04:46:38;10.60;;;6.78;;
70106;SDS011;57473;37.508;15.080;2022-07-23T04:49:07;9.35;;;7.20;;
70106;SDS011;57473;37.508;15.080;2022-07-23T04:51:34;9.57;;;6.38;;
70106;SDS011;57473;37.508;15.080;2022-07-23T04:54:01;9.48;;;6.88;;
70106;SDS011;57473;37.508;15.080;2022-07-23T04:56:29;11.52;;;7.20;;
70106;SDS011;57473;37.508;15.080;2022-07-23T04:58:56;11.23;;;6.80;;
70106;SDS011;57473;37.508;15.080;2022-07-23T05:01:24;12.88;;;7.30;;
70106;SDS011;57473;37.508;15.080;2022-07-23T05:03:51;13.80;;;7.63;;
70106;SDS011;57473;37.508;15.080;2022-07-23T05:06:19;11.45;;;8.13;;
70106;SDS011;57473;37.508;15.080;2022-07-23T05:08:46;10.77;;;7.80;;
70106;SDS011;57473;37.508;15.080;2022-07-23T05:11:14;8.05;;;6.50;;
70106;SDS011;57473;37.508;15.080;2022-07-23T05:13:41;9.65;;;6.60;;
70106;SDS011;57473;37.508;15.080;2022-07-23T05:16:09;9.60;;;7.60;;
70106;SDS011;57473;37.508;15.080;2022-07-23T05:18:36;10.00;;;7.18;;
70106;SDS011;57473;37.508;15.080;2022-07-23T05:21:04;10.30;;;6.97;;
70106;SDS011;57473;37.508;15.080;2022-07-23T05:23:32;10.10;;;6.85;;
70106;SDS011;57473;37.508;15.080;2022-07-23T05:25:59;10.50;;;6.72;;
70106;SDS011;57473;37.508;15.080;2022-07-23T05:28:28;12.77;;;7.40;;
70106;SDS011;57473;37.508;15.080;2022-07-23T05:30:56;10.55;;;6.82;;
70106;SDS011;57473;37.508;15.080;2022-07-23T05:33:24;8.35;;;6.70;;
70106;SDS011;57473;37.508;15.080;2022-07-23T05:35:52;7.78;;;6.57;;
70106;SDS011;57473;37.508;15.080;2022-07-23T05:38:27;10.38;;;7.10;;
70106;SDS011;57473;37.508;15.080;2022-07-23T05:40:58;10.15;;;7.38;;
70106;SDS011;57473;37.508;15.080;2022-07-23T05:43:26;10.77;;;7.70;;
70106;SDS011;57473;37.508;15.080;2022-07-23T05:45:55;10.50;;;8.23;;
70106;SDS011;57473;37.508;15.080;2022-07-23T05:48:23;9.93;;;7.90;;
70106;SDS011;57473;37.508;15.080;2022-07-23T05:51:00;12.77;;;9.68;;
70106;SDS011;57473;37.508;15.080;2022-07-23T05:53:30;11.63;;;9.50;;
70106;SDS011;57473;37.508;15.080;2022-07-23T05:56:00;15.65;;;9.55;;
70106;SDS011;57473;37.508;15.080;2022-07-23T05:58:30;9.93;;;8.73;;
70106;SDS011;57473;37.508;15.080;2022-07-23T06:00:57;9.93;;;8.40;;
70106;SDS011;57473;37.508;15.080;2022-07-23T06:03:27;10.35;;;7.38;;
70106;SDS011;57473;37.508;15.080;2022-07-23T06:05:55;10.05;;;7.45;;
70106;SDS011;57473;37.508;15.080;2022-07-23T06:08:23;11.75;;;7.70;;
70106;SDS011;57473;37.508;15.080;2022-07-23T06:10:54;12.13;;;8.18;;
70106;SDS011;57473;37.508;15.080;2022-07-23T06:13:21;8.98;;;7.97;;
70106;SDS011;57473;37.508;15.080;2022-07-23T06:15:49;9.63;;;7.78;;
70106;SDS011;57473;37.508;15.080;2022-07-23T06:18:18;9.05;;;7.72;;
70106;SDS011;57473;37.508;15.080;2022-07-23T06:20:45;8.50;;;7.43;;
70106;SDS011;57473;37.508;15.080;2022-07-23T06:23:16;10.73;;;7.90;;
70106;SDS011;57473;37.508;15.080;2022-07-23T06:25:44;10.15;;;7.75;;
70106;SDS011;57473;37.508;15.080;2022-07-23T06:28:11;9.77;;;8.10;;
70106;SDS011;57473;37.508;15.080;2022-07-23T06:30:41;12.10;;;8.52;;
70106;SDS011;57473;37.508;15.080;2022-07-23T06:33:09;12.43;;;8.13;;
70106;SDS011;57473;37.508;15.080;2022-07-23T06:35:38;9.80;;;8.43;;
70106;SDS011;57473;37.508;15.080;2022-07-23T06:38:06;10.30;;;8.27;;
70106;SDS011;57473;37.508;15.080;2022-07-23T06:40:34;11.15;;;8.20;;
70106;SDS011;57473;37.508;15.080;2022-07-23T06:43:01;12.18;;;8.23;;
70106;SDS011;57473;37.508;15.080;2022-07-23T06:45:33;13.57;;;8.40;;
70106;SDS011;57473;37.508;15.080;2022-07-23T06:48:00;13.68;;;8.90;;
70106;SDS011;57473;37.508;15.080;2022-07-23T06:50:31;21.00;;;19.10;;
70106;SDS011;57473;37.508;15.080;2022-07-23T06:52:59;11.02;;;7.75;;
70106;SDS011;57473;37.508;15.080;2022-07-23T06:55:27;9.30;;;7.53;;
70106;SDS011;57473;37.508;15.080;2022-07-23T06:57:54;10.95;;;7.95;;
70106;SDS011;57473;37.508;15.080;2022-07-23T07:00:28;11.43;;;8.25;;
70106;SDS011;57473;37.508;15.080;2022-07-23T07:03:00;12.73;;;8.45;;
70106;SDS011;57473;37.508;15.080;2022-07-23T07:05:27;13.98;;;8.05;;
70106;SDS011;57473;37.508;15.080;2022-07-23T07:07:54;10.93;;;7.43;;
70106;SDS011;57473;37.508;15.080;2022-07-23T07:10:22;10.25;;;8.02;;
70106;SDS011;57473;37.508;15.080;2022-07-23T07:12:49;13.35;;;8.30;;
70106;SDS011;57473;37.508;15.080;2022-07-23T07:15:16;12.40;;;8.00;;
70106;SDS011;57473;37.508;15.080;2022-07-23T07:17:47;9.85;;;7.95;;
70106;SDS011;57473;37.508;15.080;2022-07-23T07:20:18;13.75;;;7.35;;
70106;SDS011;57473;37.508;15.080;2022-07-23T07:22:45;10.15;;;7.82;;
70106;SDS011;57473;37.508;15.080;2022-07-23T07:25:12;10.82;;;7.72;;
70106;SDS011;57473;37.508;15.080;2022-07-23T07:27:40;12.57;;;8.23;;
70106;SDS011;57473;37.508;15.080;2022-07-23T07:30:07;10.60;;;7.97;;
70106;SDS011;57473;37.508;15.080;2022-07-23T07:32:35;12.73;;;7.68;;
70106;SDS011;57473;37.508;15.080;2022-07-23T07:35:23;12.88;;;8.05;;
70106;SDS011;57473;37.508;15.080;2022-07-23T07:37:51;13.57;;;7.90;;
70106;SDS011;57473;37.508;15.080;2022-07-23T07:40:19;9.40;;;7.20;;
70106;SDS011;57473;37.508;15.080;2022-07-23T07:42:47;11.10;;;7.80;;
70106;SDS011;57473;37.508;15.080;2022-07-23T07:45:16;11.15;;;7.47;;
70106;SDS011;57473;37.508;15.080;2022-07-23T07:47:43;10.25;;;7.90;;
70106;SDS011;57473;37.508;15.080;2022-07-23T07:50:11;9.07;;;7.15;;
70106;SDS011;57473;37.508;15.080;2022-07-23T07:52:39;8.73;;;7.43;;
70106;SDS011;57473;37.508;15.080;2022-07-23T07:55:07;9.52;;;7.00;;
70106;SDS011;57473;37.508;15.080;2022-07-23T07:57:36;10.07;;;7.50;;
70106;SDS011;57473;37.508;15.080;2022-07-23T08:00:04;10.68;;;7.82;;
70106;SDS011;57473;37.508;15.080;2022-07-23T08:02:46;12.63;;;8.20;;
70106;SDS011;57473;37.508;15.080;2022-07-23T08:05:18;9.85;;;7.22;;
70106;SDS011;57473;37.508;15.080;2022-07-23T08:07:54;14.02;;;7.70;;
70106;SDS011;57473;37.508;15.080;2022-07-23T08:10:22;8.07;;;7.28;;
70106;SDS011;57473;37.508;15.080;2022-07-23T08:12:51;10.18;;;7.75;;
70106;SDS011;57473;37.508;15.080;2022-07-23T08:15:20;10.93;;;7.68;;
70106;SDS011;57473;37.508;15.080;2022-07-23T08:17:49;12.25;;;7.70;;
70106;SDS011;57473;37.508;15.080;2022-07-23T08:20:17;9.00;;;7.88;;
70106;SDS011;57473;37.508;15.080;2022-07-23T08:25:25;13.20;;;7.43;;
70106;SDS011;57473;37.508;15.080;2022-07-23T08:27:53;7.32;;;6.50;;
70106;SDS011;57473;37.508;15.080;2022-07-23T08:30:21;7.65;;;6.90;;
70106;SDS011;57473;37.508;15.080;2022-07-23T08:35:17;9.52;;;7.30;;
70106;SDS011;57473;37.508;15.080;2022-07-23T08:37:44;8.55;;;7.38;;
70106;SDS011;57473;37.508;15.080;2022-07-23T08:40:12;8.70;;;7.20;;
70106;SDS011;57473;37.508;15.080;2022-07-23T08:42:39;9.68;;;7.50;;
70106;SDS011;57473;37.508;15.080;2022-07-23T08:45:07;9.55;;;7.38;;
70106;SDS011;57473;37.508;15.080;2022-07-23T08:47:36;12.20;;;7.70;;
70106;SDS011;57473;37.508;15.080;2022-07-23T08:50:05;12.15;;;6.80;;
70106;SDS011;57473;37.508;15.080;2022-07-23T08:52:34;10.88;;;6.53;;
70106;SDS011;57473;37.508;15.080;2022-07-23T08:55:04;8.10;;;6.70;;
70106;SDS011;57473;37.508;15.080;2022-07-23T08:57:34;8.38;;;7.03;;
70106;SDS011;57473;37.508;15.080;2022-07-23T09:00:02;10.45;;;7.15;;
70106;SDS011;57473;37.508;15.080;2022-07-23T09:02:31;7.93;;;6.70;;
70106;SDS011;57473;37.508;15.080;2022-07-23T09:05:04;8.77;;;6.80;;
70106;SDS011;57473;37.508;15.080;2022-07-23T09:07:32;12.30;;;7.13;;
70106;SDS011;57473;37.508;15.080;2022-07-23T09:10:10;13.65;;;6.75;;
70106;SDS011;57473;37.508;15.080;2022-07-23T09:12:41;11.07;;;6.53;;
70106;SDS011;57473;37.508;15.080;2022-07-23T09:15:08;7.85;;;6.78;;
70106;SDS011;57473;37.508;15.080;2022-07-23T09:17:39;7.90;;;6.85;;
70106;SDS011;57473;37.508;15.080;2022-07-23T09:20:11;7.50;;;6.60;;
70106;SDS011;57473;37.508;15.080;2022-07-23T09:22:44;7.80;;;6.78;;
70106;SDS011;57473;37.508;15.080;2022-07-23T09:25:14;6.72;;;6.05;;
70106;SDS011;57473;37.508;15.080;2022-07-23T09:27:48;10.20;;;6.85;;
70106;SDS011;57473;37.508;15.080;2022-07-23T09:30:21;7.10;;;6.38;;
70106;SDS011;57473;37.508;15.080;2022-07-23T09:35:56;8.98;;;6.45;;
70106;SDS011;57473;37.508;15.080;2022-07-23T09:38:23;12.48;;;6.63;;
70106;SDS011;57473;37.508;15.080;2022-07-23T09:41:10;7.75;;;6.95;;
70106;SDS011;57473;37.508;15.080;2022-07-23T09:43:39;9.90;;;6.75;;
70106;SDS011;57473;37.508;15.080;2022-07-23T09:46:20;7.70;;;6.70;;
70106;SDS011;57473;37.508;15.080;2022-07-23T09:48:54;8.02;;;6.57;;
70106;SDS011;57473;37.508;15.080;2022-07-23T09:51:23;9.80;;;6.78;;
70106;SDS011;57473;37.508;15.080;2022-07-23T09:53:51;11.10;;;6.60;;
70106;SDS011;57473;37.508;15.080;2022-07-23T09:56:21;8.40;;;6.57;;
70106;SDS011;57473;37.508;15.080;2022-07-23T09:58:53;10.35;;;6.50;;
70106;SDS011;57473;37.508;15.080;2022-07-23T10:01:39;13.65;;;6.40;;
70106;SDS011;57473;37.508;15.080;2022-07-23T10:04:06;9.68;;;6.65;;
70106;SDS011;57473;37.508;15.080;2022-07-23T10:06:54;8.63;;;7.25;;
70106;SDS011;57473;37.508;15.080;2022-07-23T10:09:41;8.68;;;7.00;;
70106;SDS011;57473;37.508;15.080;2022-07-23T10:12:35;7.93;;;6.60;;
70106;SDS011;57473;37.508;15.080;2022-07-23T10:15:12;7.88;;;6.55;;
70106;SDS011;57473;37.508;15.080;2022-07-23T10:17:39;9.40;;;7.20;;
70106;SDS011;57473;37.508;15.080;2022-07-23T10:20:06;8.45;;;6.90;;
70106;SDS011;57473;37.508;15.080;2022-07-23T10:22:38;8.57;;;7.00;;
70106;SDS011;57473;37.508;15.080;2022-07-23T10:25:18;8.98;;;6.38;;
70106;SDS011;57473;37.508;15.080;2022-07-23T10:34:58;8.32;;;6.88;;
70106;SDS011;57473;37.508;15.080;2022-07-23T10:37:18;9.40;;;6.60;;
70106;SDS011;57473;37.508;15.080;2022-07-23T10:42:49;8.43;;;6.80;;
70106;SDS011;57473;37.508;15.080;2022-07-23T10:45:22;9.45;;;7.10;;
70106;SDS011;57473;37.508;15.080;2022-07-23T10:47:56;10.15;;;6.70;;
70106;SDS011;57473;37.508;15.080;2022-07-23T10:59:24;8.18;;;6.82;;
70106;SDS011;57473;37.508;15.080;2022-07-23T11:01:51;8.48;;;7.43;;
70106;SDS011;57473;37.508;15.080;2022-07-23T11:04:18;8.48;;;6.78;;
70106;SDS011;57473;37.508;15.080;2022-07-23T11:09:26;9.85;;;6.88;;
70106;SDS011;57473;37.508;15.080;2022-07-23T11:17:25;11.05;;;6.38;;
70106;SDS011;57473;37.508;15.080;2022-07-23T11:22:36;11.50;;;6.22;;
70106;SDS011;57473;37.508;15.080;2022-07-23T11:25:05;10.55;;;6.70;;
70106;SDS011;57473;37.508;15.080;2022-07-23T11:30:55;8.77;;;7.65;;
70106;SDS011;57473;37.508;15.080;2022-07-23T11:35:36;8.82;;;6.90;;
70106;SDS011;57473;37.508;15.080;2022-07-23T11:38:17;6.05;;;5.45;;
70106;SDS011;57473;37.508;15.080;2022-07-23T11:40:49;9.85;;;6.10;;
70106;SDS011;57473;37.508;15.080;2022-07-23T11:43:18;8.75;;;5.70;;
70106;SDS011;57473;37.508;15.080;2022-07-23T11:45:50;6.85;;;6.20;;
70106;SDS011;57473;37.508;15.080;2022-07-23T11:48:24;6.20;;;5.60;;
70106;SDS011;57473;37.508;15.080;2022-07-23T11:50:54;7.80;;;6.28;;
70106;SDS011;57473;37.508;15.080;2022-07-23T11:53:23;8.27;;;5.85;;
70106;SDS011;57473;37.508;15.080;2022-07-23T11:58:38;6.63;;;5.93;;
70106;SDS011;57473;37.508;15.080;2022-07-23T12:01:20;11.98;;;8.35;;
70106;SDS011;57473;37.508;15.080;2022-07-23T12:03:50;7.13;;;6.10;;
70106;SDS011;57473;37.508;15.080;2022-07-23T12:06:18;7.38;;;5.75;;
70106;SDS011;57473;37.508;15.080;2022-07-23T12:08:46;6.88;;;5.90;;
70106;SDS011;57473;37.508;15.080;2022-07-23T12:11:13;7.75;;;5.60;;
70106;SDS011;57473;37.508;15.080;2022-07-23T12:13:54;7.85;;;5.68;;
70106;SDS011;57473;37.508;15.080;2022-07-23T12:16:23;6.07;;;5.30;;
70106;SDS011;57473;37.508;15.080;2022-07-23T12:18:50;7.07;;;5.50;;
70106;SDS011;57473;37.508;15.080;2022-07-23T12:21:17;6.07;;;5.47;;
70106;SDS011;57473;37.508;15.080;2022-07-23T12:23:46;6.65;;;5.65;;
70106;SDS011;57473;37.508;15.080;2022-07-23T12:26:15;8.23;;;5.57;;
70106;SDS011;57473;37.508;15.080;2022-07-23T12:28:44;8.27;;;5.77;;
70106;SDS011;57473;37.508;15.080;2022-07-23T12:31:25;6.50;;;5.20;;
70106;SDS011;57473;37.508;15.080;2022-07-23T12:33:55;6.68;;;5.28;;
70106;SDS011;57473;37.508;15.080;2022-07-23T12:36:38;8.98;;;5.07;;
70106;SDS011;57473;37.508;15.080;2022-07-23T12:39:10;6.30;;;4.95;;
70106;SDS011;57473;37.508;15.080;2022-07-23T12:41:50;9.23;;;6.15;;
70106;SDS011;57473;37.508;15.080;2022-07-23T12:44:18;6.75;;;4.97;;
70106;SDS011;57473;37.508;15.080;2022-07-23T12:46:49;5.40;;;4.90;;
70106;SDS011;57473;37.508;15.080;2022-07-23T12:49:27;7.15;;;5.38;;
70106;SDS011;57473;37.508;15.080;2022-07-23T12:51:57;7.07;;;5.35;;
70106;SDS011;57473;37.508;15.080;2022-07-23T12:54:28;5.70;;;5.20;;
70106;SDS011;57473;37.508;15.080;2022-07-23T12:56:56;7.30;;;5.10;;
70106;SDS011;57473;37.508;15.080;2022-07-23T12:59:24;7.25;;;5.05;;
70106;SDS011;57473;37.508;15.080;2022-07-23T13:01:58;7.25;;;5.35;;
70106;SDS011;57473;37.508;15.080;2022-07-23T13:04:26;7.88;;;5.35;;
70106;SDS011;57473;37.508;15.080;2022-07-23T13:06:54;6.40;;;5.43;;
70106;SDS011;57473;37.508;15.080;2022-07-23T13:09:26;8.05;;;5.10;;
70106;SDS011;57473;37.508;15.080;2022-07-23T13:12:02;6.20;;;5.22;;
70106;SDS011;57473;37.508;15.080;2022-07-23T13:14:31;7.57;;;6.07;;
70106;SDS011;57473;37.508;15.080;2022-07-23T13:17:00;8.25;;;5.07;;
70106;SDS011;57473;37.508;15.080;2022-07-23T13:19:27;8.45;;;6.00;;
70106;SDS011;57473;37.508;15.080;2022-07-23T13:21:55;6.38;;;5.00;;
70106;SDS011;57473;37.508;15.080;2022-07-23T13:24:24;5.80;;;4.97;;
70106;SDS011;57473;37.508;15.080;2022-07-23T13:26:53;7.75;;;5.82;;
70106;SDS011;57473;37.508;15.080;2022-07-23T13:29:21;6.68;;;4.68;;
70106;SDS011;57473;37.508;15.080;2022-07-23T13:31:48;6.32;;;5.20;;
70106;SDS011;57473;37.508;15.080;2022-07-23T13:34:16;6.70;;;5.63;;
70106;SDS011;57473;37.508;15.080;2022-07-23T13:36:48;6.25;;;5.60;;
70106;SDS011;57473;37.508;15.080;2022-07-23T13:39:16;6.50;;;4.68;;
70106;SDS011;57473;37.508;15.080;2022-07-23T13:41:43;7.30;;;6.30;;
70106;SDS011;57473;37.508;15.080;2022-07-23T13:44:16;5.60;;;5.07;;
70106;SDS011;57473;37.508;15.080;2022-07-23T13:46:48;5.80;;;5.20;;
70106;SDS011;57473;37.508;15.080;2022-07-23T13:49:15;6.50;;;4.82;;
70106;SDS011;57473;37.508;15.080;2022-07-23T13:51:44;9.93;;;5.45;;
70106;SDS011;57473;37.508;15.080;2022-07-23T13:54:11;7.05;;;5.93;;
70106;SDS011;57473;37.508;15.080;2022-07-23T13:56:39;5.25;;;4.75;;
70106;SDS011;57473;37.508;15.080;2022-07-23T13:59:07;7.65;;;5.15;;
70106;SDS011;57473;37.508;15.080;2022-07-23T14:01:34;5.45;;;4.95;;
70106;SDS011;57473;37.508;15.080;2022-07-23T14:04:21;6.60;;;5.10;;
70106;SDS011;57473;37.508;15.080;2022-07-23T14:06:48;5.80;;;5.20;;
70106;SDS011;57473;37.508;15.080;2022-07-23T14:09:20;7.53;;;5.18;;
70106;SDS011;57473;37.508;15.080;2022-07-23T14:11:47;6.82;;;5.20;;
70106;SDS011;57473;37.508;15.080;2022-07-23T14:14:17;6.82;;;4.70;;
70106;SDS011;57473;37.508;15.080;2022-07-23T14:16:45;9.20;;;4.85;;
70106;SDS011;57473;37.508;15.080;2022-07-23T14:19:12;7.80;;;5.07;;
70106;SDS011;57473;37.508;15.080;2022-07-23T14:21:40;7.25;;;6.03;;
70106;SDS011;57473;37.508;15.080;2022-07-23T14:24:11;8.15;;;5.60;;
70106;SDS011;57473;37.508;15.080;2022-07-23T14:26:38;6.40;;;4.97;;
70106;SDS011;57473;37.508;15.080;2022-07-23T14:29:05;6.50;;;5.40;;
70106;SDS011;57473;37.508;15.080;2022-07-23T14:31:34;6.40;;;4.78;;
70106;SDS011;57473;37.508;15.080;2022-07-23T14:34:07;4.95;;;4.55;;
70106;SDS011;57473;37.508;15.080;2022-07-23T14:36:34;6.60;;;5.63;;
70106;SDS011;57473;37.508;15.080;2022-07-23T14:39:05;8.20;;;5.63;;
70106;SDS011;57473;37.508;15.080;2022-07-23T14:41:36;6.93;;;5.55;;
70106;SDS011;57473;37.508;15.080;2022-07-23T14:44:05;6.88;;;5.57;;
70106;SDS011;57473;37.508;15.080;2022-07-23T14:46:37;6.38;;;5.50;;
70106;SDS011;57473;37.508;15.080;2022-07-23T14:49:09;11.35;;;8.85;;
70106;SDS011;57473;37.508;15.080;2022-07-23T14:51:37;7.57;;;6.50;;
70106;SDS011;57473;37.508;15.080;2022-07-23T14:54:04;13.20;;;8.18;;
70106;SDS011;57473;37.508;15.080;2022-07-23T14:56:32;7.95;;;5.70;;
70106;SDS011;57473;37.508;15.080;2022-07-23T14:59:00;5.80;;;5.20;;
70106;SDS011;57473;37.508;15.080;2022-07-23T15:01:30;9.02;;;5.78;;
70106;SDS011;57473;37.508;15.080;2022-07-23T15:04:00;7.18;;;5.70;;
70106;SDS011;57473;37.508;15.080;2022-07-23T15:06:48;7.32;;;5.50;;
70106;SDS011;57473;37.508;15.080;2022-07-23T15:09:15;6.22;;;5.57;;
70106;SDS011;57473;37.508;15.080;2022-07-23T15:11:45;10.10;;;7.15;;
70106;SDS011;57473;37.508;15.080;2022-07-23T15:14:16;7.68;;;5.65;;
70106;SDS011;57473;37.508;15.080;2022-07-23T15:16:54;6.95;;;5.43;;
70106;SDS011;57473;37.508;15.080;2022-07-23T15:19:22;10.57;;;8.23;;
70106;SDS011;57473;37.508;15.080;2022-07-23T15:21:49;7.32;;;5.60;;
70106;SDS011;57473;37.508;15.080;2022-07-23T15:24:16;6.95;;;5.13;;
70106;SDS011;57473;37.508;15.080;2022-07-23T15:26:44;7.63;;;5.13;;
70106;SDS011;57473;37.508;15.080;2022-07-23T15:29:12;6.45;;;5.05;;
70106;SDS011;57473;37.508;15.080;2022-07-23T15:31:39;7.90;;;6.00;;
70106;SDS011;57473;37.508;15.080;2022-07-23T15:34:06;10.45;;;6.55;;